sensor_id;sensor_type;location;lat;lon;timestamp;pressure;altitude;pressure_sealevel;temperature;humidity
75089;BME280;63673;49.928;8.150;2023-11-19T00:00:11;988.84;;;7.31;100
75089;BME280;63673;49.928;8.150;2023-11-19T00:01:13;988.81;;;7.32;100
75089;BME280;63673;49.928;8.150;2023-11-19T00:02:14;988.79;;;7.32;100
75089;BME280;63673;49.928;8.150;2023-11-19T00:03:15;988.79;;;7.32;100
75089;BME280;63673;49.928;8.150;2023-11-19T00:04:18;988.83;;;7.33;100
75089;BME280;63673;49.928;8.150;2023-11-19T00:05:20;988.8;;;7.33;100
75089;BME280;63673;49.928;8.150;2023-11-19T00:06:20;988.85;;;7.34;100
75089;BME280;63673;49.928;8.150;2023-11-19T00:07:23;988.86;;;7.35;100
75089;BME280;63673;49.928;8.150;2023-11-19T00:08:25;988.88;;;7.35;100
75089;BME280;63673;49.928;8.150;2023-11-19T00:09:27;988.95;;;7.36;100
75089;BME280;63673;49.928;8.150;2023-11-19T00:10:28;988.87;;;7.36;100
75089;BME280;63673;49.928;8.150;2023-11-19T00:11:31;988.92;;;7.37;100
75089;BME280;63673;49.928;8.150;2023-11-19T00:12:32;988.92;;;7.38;100
75089;BME280;63673;49.928;8.150;2023-11-19T00:13:34;989.01;;;7.38;100
75089;BME280;63673;49.928;8.150;2023-11-19T00:14:35;988.98;;;7.39;100
75089;BME280;63673;49.928;8.150;2023-11-19T00:15:38;989.07;;;7.4;100
75089;BME280;63673;49.928;8.150;2023-11-19T00:16:39;989.05;;;7.4;100
75089;BME280;63673;49.928;8.150;2023-11-19T00:17:41;989.08;;;7.41;100
75089;BME280;63673;49.928;8.150;2023-11-19T00:18:42;989.02;;;7.41;100
75089;BME280;63673;49.928;8.150;2023-11-19T00:19:44;989.11;;;7.42;100
75089;BME280;63673;49.928;8.150;2023-11-19T00:20:46;989.05;;;7.42;100
75089;BME280;63673;49.928;8.150;2023-11-19T00:21:47;988.98;;;7.43;100
75089;BME280;63673;49.928;8.150;2023-11-19T00:22:49;989.02;;;7.44;100
75089;BME280;63673;49.928;8.150;2023-11-19T00:23:51;988.95;;;7.45;100
75089;BME280;63673;49.928;8.150;2023-11-19T00:24:53;988.89;;;7.45;100
75089;BME280;63673;49.928;8.150;2023-11-19T00:25:54;988.92;;;7.46;100
75089;BME280;63673;49.928;8.150;2023-11-19T00:26:56;988.94;;;7.47;100
75089;BME280;63673;49.928;8.150;2023-11-19T00:27:58;988.94;;;7.47;100
75089;BME280;63673;49.928;8.150;2023-11-19T00:29:00;988.94;;;7.48;100
75089;BME280;63673;49.928;8.150;2023-11-19T00:30:01;988.91;;;7.48;100
75089;BME280;63673;49.928;8.150;2023-11-19T00:31:03;988.92;;;7.48;100
75089;BME280;63673;49.928;8.150;2023-11-19T00:32:05;988.97;;;7.49;100
75089;BME280;63673;49.928;8.150;2023-11-19T00:33:06;988.98;;;7.49;100
75089;BME280;63673;49.928;8.150;2023-11-19T00:34:08;988.88;;;7.5;100
75089;BME280;63673;49.928;8.150;2023-11-19T00:35:10;988.83;;;7.51;100
75089;BME280;63673;49.928;8.150;2023-11-19T00:36:12;988.77;;;7.51;100
75089;BME280;63673;49.928;8.150;2023-11-19T00:37:13;988.74;;;7.52;100
75089;BME280;63673;49.928;8.150;2023-11-19T00:38:13;988.74;;;7.52;100
75089;BME280;63673;49.928;8.150;2023-11-19T00:39:37;988.76;;;7.53;100
75089;BME280;63673;49.928;8.150;2023-11-19T00:40:38;988.6;;;7.53;100
75089;BME280;63673;49.928;8.150;2023-11-19T00:41:59;988.68;;;7.54;100
75089;BME280;63673;49.928;8.150;2023-11-19T00:43:00;988.62;;;7.55;100
75089;BME280;63673;49.928;8.150;2023-11-19T00:44:02;988.72;;;7.56;100
75089;BME280;63673;49.928;8.150;2023-11-19T00:45:04;988.73;;;7.57;100
75089;BME280;63673;49.928;8.150;2023-11-19T00:46:06;988.67;;;7.58;100
75089;BME280;63673;49.928;8.150;2023-11-19T00:47:07;988.79;;;7.59;100
75089;BME280;63673;49.928;8.150;2023-11-19T00:48:09;988.87;;;7.6;100
75089;BME280;63673;49.928;8.150;2023-11-19T00:49:11;988.81;;;7.61;100
75089;BME280;63673;49.928;8.150;2023-11-19T00:50:12;988.74;;;7.61;100
75089;BME280;63673;49.928;8.150;2023-11-19T00:51:14;988.76;;;7.62;100
75089;BME280;63673;49.928;8.150;2023-11-19T00:52:16;988.62;;;7.64;100
75089;BME280;63673;49.928;8.150;2023-11-19T00:53:18;988.58;;;7.64;100
75089;BME280;63673;49.928;8.150;2023-11-19T00:54:19;988.52;;;7.65;100
75089;BME280;63673;49.928;8.150;2023-11-19T00:55:21;988.64;;;7.65;100
75089;BME280;63673;49.928;8.150;2023-11-19T00:56:23;988.67;;;7.66;100
75089;BME280;63673;49.928;8.150;2023-11-19T00:57:25;988.61;;;7.65;100
75089;BME280;63673;49.928;8.150;2023-11-19T00:58:26;988.58;;;7.66;100
75089;BME280;63673;49.928;8.150;2023-11-19T00:59:28;988.59;;;7.66;100
75089;BME280;63673;49.928;8.150;2023-11-19T01:00:30;988.54;;;7.67;100
75089;BME280;63673;49.928;8.150;2023-11-19T01:01:31;988.41;;;7.68;100
75089;BME280;63673;49.928;8.150;2023-11-19T01:02:33;988.27;;;7.68;100
75089;BME280;63673;49.928;8.150;2023-11-19T01:03:35;988.18;;;7.69;100
75089;BME280;63673;49.928;8.150;2023-11-19T01:04:37;988.25;;;7.69;100
75089;BME280;63673;49.928;8.150;2023-11-19T01:05:38;988.48;;;7.7;100
75089;BME280;63673;49.928;8.150;2023-11-19T01:06:40;988.57;;;7.7;100
75089;BME280;63673;49.928;8.150;2023-11-19T01:07:42;988.54;;;7.7;100
75089;BME280;63673;49.928;8.150;2023-11-19T01:08:44;988.48;;;7.71;100
75089;BME280;63673;49.928;8.150;2023-11-19T01:09:45;988.33;;;7.71;100
75089;BME280;63673;49.928;8.150;2023-11-19T01:10:47;988.37;;;7.71;100
75089;BME280;63673;49.928;8.150;2023-11-19T01:11:49;988.35;;;7.72;100
75089;BME280;63673;49.928;8.150;2023-11-19T01:12:51;988.3;;;7.72;100
75089;BME280;63673;49.928;8.150;2023-11-19T01:13:52;988.31;;;7.73;100
75089;BME280;63673;49.928;8.150;2023-11-19T01:14:54;988.32;;;7.74;100
75089;BME280;63673;49.928;8.150;2023-11-19T01:15:56;988.37;;;7.73;100
75089;BME280;63673;49.928;8.150;2023-11-19T01:16:57;988.39;;;7.73;100
75089;BME280;63673;49.928;8.150;2023-11-19T01:17:59;988.36;;;7.74;100
75089;BME280;63673;49.928;8.150;2023-11-19T01:19:01;988.34;;;7.74;100
75089;BME280;63673;49.928;8.150;2023-11-19T01:20:03;988.29;;;7.75;100
75089;BME280;63673;49.928;8.150;2023-11-19T01:21:05;988.18;;;7.75;100
75089;BME280;63673;49.928;8.150;2023-11-19T01:22:06;988.14;;;7.75;100
75089;BME280;63673;49.928;8.150;2023-11-19T01:23:08;988.25;;;7.76;100
75089;BME280;63673;49.928;8.150;2023-11-19T01:24:10;988.28;;;7.76;100
75089;BME280;63673;49.928;8.150;2023-11-19T01:25:11;988.31;;;7.76;100
75089;BME280;63673;49.928;8.150;2023-11-19T01:26:13;988.26;;;7.77;100
75089;BME280;63673;49.928;8.150;2023-11-19T01:27:15;988.24;;;7.77;100
75089;BME280;63673;49.928;8.150;2023-11-19T01:28:16;988.26;;;7.78;100
75089;BME280;63673;49.928;8.150;2023-11-19T01:29:18;988.37;;;7.78;100
75089;BME280;63673;49.928;8.150;2023-11-19T01:30:20;988.34;;;7.78;100
75089;BME280;63673;49.928;8.150;2023-11-19T01:31:22;988.33;;;7.79;100
75089;BME280;63673;49.928;8.150;2023-11-19T01:32:23;988.25;;;7.78;100
75089;BME280;63673;49.928;8.150;2023-11-19T01:33:25;988.17;;;7.79;100
75089;BME280;63673;49.928;8.150;2023-11-19T01:34:27;988.22;;;7.79;100
75089;BME280;63673;49.928;8.150;2023-11-19T01:35:29;988.25;;;7.79;100
75089;BME280;63673;49.928;8.150;2023-11-19T01:36:30;988.34;;;7.8;100
75089;BME280;63673;49.928;8.150;2023-11-19T01:37:32;988.41;;;7.8;100
75089;BME280;63673;49.928;8.150;2023-11-19T01:38:34;988.48;;;7.82;100
75089;BME280;63673;49.928;8.150;2023-11-19T01:39:36;988.52;;;7.82;100
75089;BME280;63673;49.928;8.150;2023-11-19T01:40:37;988.44;;;7.83;100
75089;BME280;63673;49.928;8.150;2023-11-19T01:41:39;988.42;;;7.83;100
75089;BME280;63673;49.928;8.150;2023-11-19T01:42:41;988.43;;;7.84;100
75089;BME280;63673;49.928;8.150;2023-11-19T01:43:43;988.35;;;7.84;100
75089;BME280;63673;49.928;8.150;2023-11-19T01:44:54;988.3;;;7.85;100
75089;BME280;63673;49.928;8.150;2023-11-19T01:45:46;988.33;;;7.85;100
75089;BME280;63673;49.928;8.150;2023-11-19T01:46:48;988.24;;;7.86;100
75089;BME280;63673;49.928;8.150;2023-11-19T01:47:49;988.2;;;7.87;100
75089;BME280;63673;49.928;8.150;2023-11-19T01:48:51;988.11;;;7.87;100
75089;BME280;63673;49.928;8.150;2023-11-19T01:49:53;988;;;7.88;100
75089;BME280;63673;49.928;8.150;2023-11-19T01:50:55;988;;;7.89;100
75089;BME280;63673;49.928;8.150;2023-11-19T01:51:57;987.9;;;7.9;100
75089;BME280;63673;49.928;8.150;2023-11-19T01:52:58;987.87;;;7.91;100
75089;BME280;63673;49.928;8.150;2023-11-19T01:54:00;987.95;;;7.9;100
75089;BME280;63673;49.928;8.150;2023-11-19T01:55:02;987.99;;;7.91;100
75089;BME280;63673;49.928;8.150;2023-11-19T01:56:04;987.96;;;7.91;100
75089;BME280;63673;49.928;8.150;2023-11-19T01:57:05;987.9;;;7.92;100
75089;BME280;63673;49.928;8.150;2023-11-19T01:58:07;987.86;;;7.91;100
75089;BME280;63673;49.928;8.150;2023-11-19T01:59:09;987.86;;;7.91;100
75089;BME280;63673;49.928;8.150;2023-11-19T02:00:10;987.8;;;7.92;100
75089;BME280;63673;49.928;8.150;2023-11-19T02:01:12;987.75;;;7.92;100
75089;BME280;63673;49.928;8.150;2023-11-19T02:02:14;987.78;;;7.92;100
75089;BME280;63673;49.928;8.150;2023-11-19T02:03:15;987.77;;;7.92;100
75089;BME280;63673;49.928;8.150;2023-11-19T02:04:17;987.73;;;7.92;100
75089;BME280;63673;49.928;8.150;2023-11-19T02:05:19;987.7;;;7.93;100
75089;BME280;63673;49.928;8.150;2023-11-19T02:06:21;987.74;;;7.92;100
75089;BME280;63673;49.928;8.150;2023-11-19T02:07:22;987.71;;;7.93;100
75089;BME280;63673;49.928;8.150;2023-11-19T02:08:24;987.7;;;7.92;100
75089;BME280;63673;49.928;8.150;2023-11-19T02:09:26;987.75;;;7.93;100
75089;BME280;63673;49.928;8.150;2023-11-19T02:10:28;987.72;;;7.93;100
75089;BME280;63673;49.928;8.150;2023-11-19T02:11:29;987.72;;;7.93;100
75089;BME280;63673;49.928;8.150;2023-11-19T02:12:31;987.73;;;7.94;100
75089;BME280;63673;49.928;8.150;2023-11-19T02:13:33;987.76;;;7.94;100
75089;BME280;63673;49.928;8.150;2023-11-19T02:14:34;987.7;;;7.94;100
75089;BME280;63673;49.928;8.150;2023-11-19T02:15:49;987.71;;;7.96;100
75089;BME280;63673;49.928;8.150;2023-11-19T02:19:03;987.72;;;7.98;100
75089;BME280;63673;49.928;8.150;2023-11-19T02:22:45;987.66;;;7.98;100
75089;BME280;63673;49.928;8.150;2023-11-19T02:24:02;987.78;;;8.01;100
75089;BME280;63673;49.928;8.150;2023-11-19T02:25:04;987.77;;;8.02;100
75089;BME280;63673;49.928;8.150;2023-11-19T02:26:10;987.76;;;8.02;100
75089;BME280;63673;49.928;8.150;2023-11-19T02:27:08;987.76;;;8.03;100
75089;BME280;63673;49.928;8.150;2023-11-19T02:28:08;987.77;;;8.04;100
75089;BME280;63673;49.928;8.150;2023-11-19T02:29:10;987.71;;;8.05;100
75089;BME280;63673;49.928;8.150;2023-11-19T02:30:12;987.64;;;8.06;100
75089;BME280;63673;49.928;8.150;2023-11-19T02:31:14;987.66;;;8.06;100
75089;BME280;63673;49.928;8.150;2023-11-19T02:32:15;987.62;;;8.07;100
75089;BME280;63673;49.928;8.150;2023-11-19T02:33:17;987.56;;;8.08;100
75089;BME280;63673;49.928;8.150;2023-11-19T02:34:19;987.59;;;8.08;100
75089;BME280;63673;49.928;8.150;2023-11-19T02:35:20;987.57;;;8.09;100
75089;BME280;63673;49.928;8.150;2023-11-19T02:36:22;987.54;;;8.09;100
75089;BME280;63673;49.928;8.150;2023-11-19T02:37:24;987.55;;;8.1;100
75089;BME280;63673;49.928;8.150;2023-11-19T02:38:26;987.53;;;8.11;100
75089;BME280;63673;49.928;8.150;2023-11-19T02:39:27;987.54;;;8.11;100
75089;BME280;63673;49.928;8.150;2023-11-19T02:40:29;987.53;;;8.11;100
75089;BME280;63673;49.928;8.150;2023-11-19T02:41:31;987.55;;;8.11;100
75089;BME280;63673;49.928;8.150;2023-11-19T02:42:33;987.55;;;8.12;100
75089;BME280;63673;49.928;8.150;2023-11-19T02:43:35;987.54;;;8.12;100
75089;BME280;63673;49.928;8.150;2023-11-19T02:44:36;987.51;;;8.12;100
75089;BME280;63673;49.928;8.150;2023-11-19T02:45:38;987.5;;;8.13;100
75089;BME280;63673;49.928;8.150;2023-11-19T02:46:40;987.47;;;8.13;100
75089;BME280;63673;49.928;8.150;2023-11-19T02:47:41;987.47;;;8.14;100
75089;BME280;63673;49.928;8.150;2023-11-19T02:48:43;987.49;;;8.14;100
75089;BME280;63673;49.928;8.150;2023-11-19T02:49:45;987.49;;;8.13;100
75089;BME280;63673;49.928;8.150;2023-11-19T02:50:46;987.45;;;8.13;100
75089;BME280;63673;49.928;8.150;2023-11-19T02:51:48;987.38;;;8.13;100
75089;BME280;63673;49.928;8.150;2023-11-19T02:52:51;987.34;;;8.13;100
75089;BME280;63673;49.928;8.150;2023-11-19T02:53:52;987.36;;;8.13;100
75089;BME280;63673;49.928;8.150;2023-11-19T02:54:53;987.37;;;8.14;100
75089;BME280;63673;49.928;8.150;2023-11-19T02:55:55;987.4;;;8.13;100
75089;BME280;63673;49.928;8.150;2023-11-19T02:56:57;987.45;;;8.14;100
75089;BME280;63673;49.928;8.150;2023-11-19T02:57:59;987.45;;;8.15;100
75089;BME280;63673;49.928;8.150;2023-11-19T02:59:00;987.48;;;8.15;100
75089;BME280;63673;49.928;8.150;2023-11-19T03:00:02;987.49;;;8.15;100
75089;BME280;63673;49.928;8.150;2023-11-19T03:01:04;987.46;;;8.15;100
75089;BME280;63673;49.928;8.150;2023-11-19T03:02:06;987.43;;;8.15;100
75089;BME280;63673;49.928;8.150;2023-11-19T03:03:08;987.38;;;8.16;100
75089;BME280;63673;49.928;8.150;2023-11-19T03:04:09;987.43;;;8.15;100
75089;BME280;63673;49.928;8.150;2023-11-19T03:05:11;987.4;;;8.16;100
75089;BME280;63673;49.928;8.150;2023-11-19T03:06:12;987.42;;;8.16;100
75089;BME280;63673;49.928;8.150;2023-11-19T03:07:14;987.27;;;8.15;100
75089;BME280;63673;49.928;8.150;2023-11-19T03:08:16;987.3;;;8.16;100
75089;BME280;63673;49.928;8.150;2023-11-19T03:09:18;987.34;;;8.16;100
75089;BME280;63673;49.928;8.150;2023-11-19T03:10:20;987.32;;;8.16;100
75089;BME280;63673;49.928;8.150;2023-11-19T03:11:21;987.31;;;8.18;100
75089;BME280;63673;49.928;8.150;2023-11-19T03:12:23;987.26;;;8.18;100
75089;BME280;63673;49.928;8.150;2023-11-19T03:13:25;987.28;;;8.18;100
75089;BME280;63673;49.928;8.150;2023-11-19T03:14:26;987.2;;;8.2;100
75089;BME280;63673;49.928;8.150;2023-11-19T03:15:28;987.28;;;8.21;100
75089;BME280;63673;49.928;8.150;2023-11-19T03:16:30;987.24;;;8.21;100
75089;BME280;63673;49.928;8.150;2023-11-19T03:17:32;987.22;;;8.22;100
75089;BME280;63673;49.928;8.150;2023-11-19T03:18:33;987.16;;;8.23;100
75089;BME280;63673;49.928;8.150;2023-11-19T03:19:35;987.18;;;8.24;100
75089;BME280;63673;49.928;8.150;2023-11-19T03:20:37;987.19;;;8.24;100
75089;BME280;63673;49.928;8.150;2023-11-19T03:21:39;987.17;;;8.26;100
75089;BME280;63673;49.928;8.150;2023-11-19T03:22:40;987.17;;;8.27;100
75089;BME280;63673;49.928;8.150;2023-11-19T03:23:42;987.17;;;8.27;100
75089;BME280;63673;49.928;8.150;2023-11-19T03:24:44;987.12;;;8.28;100
75089;BME280;63673;49.928;8.150;2023-11-19T03:25:45;987.1;;;8.29;100
75089;BME280;63673;49.928;8.150;2023-11-19T03:26:47;987.15;;;8.3;100
75089;BME280;63673;49.928;8.150;2023-11-19T03:27:49;987.2;;;8.31;100
75089;BME280;63673;49.928;8.150;2023-11-19T03:28:51;987.21;;;8.32;100
75089;BME280;63673;49.928;8.150;2023-11-19T03:29:52;987.18;;;8.33;100
75089;BME280;63673;49.928;8.150;2023-11-19T03:30:54;987.18;;;8.35;100
75089;BME280;63673;49.928;8.150;2023-11-19T03:31:56;987.14;;;8.36;100
75089;BME280;63673;49.928;8.150;2023-11-19T03:32:57;987.14;;;8.37;100
75089;BME280;63673;49.928;8.150;2023-11-19T03:33:59;987.14;;;8.38;100
75089;BME280;63673;49.928;8.150;2023-11-19T03:35:01;987.14;;;8.39;100
75089;BME280;63673;49.928;8.150;2023-11-19T03:36:03;987.18;;;8.4;100
75089;BME280;63673;49.928;8.150;2023-11-19T03:37:04;987.08;;;8.42;100
75089;BME280;63673;49.928;8.150;2023-11-19T03:38:06;987.16;;;8.43;100
75089;BME280;63673;49.928;8.150;2023-11-19T03:39:08;987.12;;;8.44;100
75089;BME280;63673;49.928;8.150;2023-11-19T03:40:10;987.16;;;8.45;100
75089;BME280;63673;49.928;8.150;2023-11-19T03:41:11;987.12;;;8.47;100
75089;BME280;63673;49.928;8.150;2023-11-19T03:42:13;987.11;;;8.48;100
75089;BME280;63673;49.928;8.150;2023-11-19T03:43:15;987.08;;;8.48;100
75089;BME280;63673;49.928;8.150;2023-11-19T03:44:17;987.06;;;8.5;100
75089;BME280;63673;49.928;8.150;2023-11-19T03:45:18;987.11;;;8.51;100
75089;BME280;63673;49.928;8.150;2023-11-19T03:46:20;987.14;;;8.52;100
75089;BME280;63673;49.928;8.150;2023-11-19T03:47:22;987.08;;;8.54;100
75089;BME280;63673;49.928;8.150;2023-11-19T03:48:23;987.14;;;8.55;100
75089;BME280;63673;49.928;8.150;2023-11-19T03:49:25;987.1;;;8.55;100
75089;BME280;63673;49.928;8.150;2023-11-19T03:50:27;987.1;;;8.56;100
75089;BME280;63673;49.928;8.150;2023-11-19T03:51:29;987.07;;;8.58;100
75089;BME280;63673;49.928;8.150;2023-11-19T03:52:31;987.09;;;8.58;100
75089;BME280;63673;49.928;8.150;2023-11-19T03:53:32;987.1;;;8.59;100
75089;BME280;63673;49.928;8.150;2023-11-19T03:54:34;987.02;;;8.6;100
75089;BME280;63673;49.928;8.150;2023-11-19T03:55:36;986.99;;;8.61;100
75089;BME280;63673;49.928;8.150;2023-11-19T03:56:37;987.05;;;8.61;100
75089;BME280;63673;49.928;8.150;2023-11-19T03:57:39;987.07;;;8.62;100
75089;BME280;63673;49.928;8.150;2023-11-19T03:58:41;987.09;;;8.61;100
75089;BME280;63673;49.928;8.150;2023-11-19T03:59:43;987.15;;;8.62;100
75089;BME280;63673;49.928;8.150;2023-11-19T04:00:44;987.14;;;8.63;100
75089;BME280;63673;49.928;8.150;2023-11-19T04:01:46;987.17;;;8.64;100
75089;BME280;63673;49.928;8.150;2023-11-19T04:02:48;987.16;;;8.63;100
75089;BME280;63673;49.928;8.150;2023-11-19T04:03:49;987.08;;;8.64;100
75089;BME280;63673;49.928;8.150;2023-11-19T04:04:51;987.09;;;8.65;100
75089;BME280;63673;49.928;8.150;2023-11-19T04:05:53;987.04;;;8.65;100
75089;BME280;63673;49.928;8.150;2023-11-19T04:06:55;987.05;;;8.66;100
75089;BME280;63673;49.928;8.150;2023-11-19T04:07:56;987.05;;;8.66;100
75089;BME280;63673;49.928;8.150;2023-11-19T04:08:58;987.03;;;8.67;100
75089;BME280;63673;49.928;8.150;2023-11-19T04:10:00;987.04;;;8.67;100
75089;BME280;63673;49.928;8.150;2023-11-19T04:11:02;986.97;;;8.68;100
75089;BME280;63673;49.928;8.150;2023-11-19T04:12:03;986.95;;;8.68;100
75089;BME280;63673;49.928;8.150;2023-11-19T04:13:05;986.97;;;8.68;100
75089;BME280;63673;49.928;8.150;2023-11-19T04:14:07;986.96;;;8.69;100
75089;BME280;63673;49.928;8.150;2023-11-19T04:15:09;987;;;8.69;100
75089;BME280;63673;49.928;8.150;2023-11-19T04:16:10;987;;;8.7;100
75089;BME280;63673;49.928;8.150;2023-11-19T04:17:12;986.99;;;8.7;100
75089;BME280;63673;49.928;8.150;2023-11-19T04:18:14;986.98;;;8.7;100
75089;BME280;63673;49.928;8.150;2023-11-19T04:19:15;986.99;;;8.71;100
75089;BME280;63673;49.928;8.150;2023-11-19T04:20:17;986.96;;;8.72;100
75089;BME280;63673;49.928;8.150;2023-11-19T04:21:19;986.99;;;8.73;100
75089;BME280;63673;49.928;8.150;2023-11-19T04:22:21;987.03;;;8.73;100
75089;BME280;63673;49.928;8.150;2023-11-19T04:23:22;987.03;;;8.75;100
75089;BME280;63673;49.928;8.150;2023-11-19T04:24:24;987.03;;;8.76;100
75089;BME280;63673;49.928;8.150;2023-11-19T04:25:26;987.02;;;8.77;100
75089;BME280;63673;49.928;8.150;2023-11-19T04:26:28;987.01;;;8.78;100
75089;BME280;63673;49.928;8.150;2023-11-19T04:27:29;987.02;;;8.79;100
75089;BME280;63673;49.928;8.150;2023-11-19T04:28:31;987.07;;;8.8;100
75089;BME280;63673;49.928;8.150;2023-11-19T04:29:33;987;;;8.81;100
75089;BME280;63673;49.928;8.150;2023-11-19T04:30:35;987.02;;;8.82;100
75089;BME280;63673;49.928;8.150;2023-11-19T04:31:36;987.05;;;8.83;100
75089;BME280;63673;49.928;8.150;2023-11-19T04:32:41;987.04;;;8.84;100
75089;BME280;63673;49.928;8.150;2023-11-19T04:33:45;986.98;;;8.86;100
75089;BME280;63673;49.928;8.150;2023-11-19T04:34:47;986.9;;;8.88;100
75089;BME280;63673;49.928;8.150;2023-11-19T04:35:48;986.86;;;8.88;100
75089;BME280;63673;49.928;8.150;2023-11-19T04:36:50;986.84;;;8.89;100
75089;BME280;63673;49.928;8.150;2023-11-19T04:37:52;986.84;;;8.9;100
75089;BME280;63673;49.928;8.150;2023-11-19T04:38:54;986.86;;;8.92;100
75089;BME280;63673;49.928;8.150;2023-11-19T04:39:55;986.88;;;8.92;100
75089;BME280;63673;49.928;8.150;2023-11-19T04:40:57;986.88;;;8.93;100
75089;BME280;63673;49.928;8.150;2023-11-19T04:41:59;986.86;;;8.94;100
75089;BME280;63673;49.928;8.150;2023-11-19T04:43:00;986.88;;;8.95;100
75089;BME280;63673;49.928;8.150;2023-11-19T04:44:02;986.91;;;8.95;100
75089;BME280;63673;49.928;8.150;2023-11-19T04:45:04;986.83;;;8.96;100
75089;BME280;63673;49.928;8.150;2023-11-19T04:46:06;986.83;;;8.98;100
75089;BME280;63673;49.928;8.150;2023-11-19T04:47:07;986.9;;;8.98;100
75089;BME280;63673;49.928;8.150;2023-11-19T04:48:09;986.87;;;8.99;100
75089;BME280;63673;49.928;8.150;2023-11-19T04:49:11;986.92;;;8.99;100
75089;BME280;63673;49.928;8.150;2023-11-19T04:50:13;986.89;;;9.01;100
75089;BME280;63673;49.928;8.150;2023-11-19T04:51:14;986.95;;;9;100
75089;BME280;63673;49.928;8.150;2023-11-19T04:52:16;986.88;;;9.01;100
75089;BME280;63673;49.928;8.150;2023-11-19T04:53:18;986.87;;;9.01;100
75089;BME280;63673;49.928;8.150;2023-11-19T04:54:20;986.87;;;9.01;100
75089;BME280;63673;49.928;8.150;2023-11-19T04:55:21;986.87;;;9.01;100
75089;BME280;63673;49.928;8.150;2023-11-19T04:56:23;986.84;;;9;100
75089;BME280;63673;49.928;8.150;2023-11-19T04:57:25;986.87;;;9;100
75089;BME280;63673;49.928;8.150;2023-11-19T04:58:28;986.78;;;8.99;100
75089;BME280;63673;49.928;8.150;2023-11-19T04:59:28;986.78;;;8.99;100
75089;BME280;63673;49.928;8.150;2023-11-19T05:00:30;986.75;;;8.99;100
75089;BME280;63673;49.928;8.150;2023-11-19T05:01:32;986.76;;;8.98;100
75089;BME280;63673;49.928;8.150;2023-11-19T05:02:34;986.78;;;8.98;100
75089;BME280;63673;49.928;8.150;2023-11-19T05:03:35;986.79;;;8.98;100
75089;BME280;63673;49.928;8.150;2023-11-19T05:04:37;986.81;;;8.99;100
75089;BME280;63673;49.928;8.150;2023-11-19T05:05:39;986.84;;;8.98;100
75089;BME280;63673;49.928;8.150;2023-11-19T05:06:40;986.8;;;8.98;100
75089;BME280;63673;49.928;8.150;2023-11-19T05:07:42;986.75;;;8.98;100
75089;BME280;63673;49.928;8.150;2023-11-19T05:08:44;986.79;;;8.99;100
75089;BME280;63673;49.928;8.150;2023-11-19T05:09:46;986.78;;;9;100
75089;BME280;63673;49.928;8.150;2023-11-19T05:10:47;986.82;;;9;100
75089;BME280;63673;49.928;8.150;2023-11-19T05:11:49;986.85;;;9.01;100
75089;BME280;63673;49.928;8.150;2023-11-19T05:12:51;986.84;;;9.01;100
75089;BME280;63673;49.928;8.150;2023-11-19T05:13:52;986.82;;;9.03;100
75089;BME280;63673;49.928;8.150;2023-11-19T05:14:54;986.8;;;9.03;100
75089;BME280;63673;49.928;8.150;2023-11-19T05:15:56;986.77;;;9.05;100
75089;BME280;63673;49.928;8.150;2023-11-19T05:16:58;986.81;;;9.05;100
75089;BME280;63673;49.928;8.150;2023-11-19T05:17:59;986.85;;;9.06;100
75089;BME280;63673;49.928;8.150;2023-11-19T05:19:01;986.82;;;9.08;100
75089;BME280;63673;49.928;8.150;2023-11-19T05:20:03;986.8;;;9.09;100
75089;BME280;63673;49.928;8.150;2023-11-19T05:21:05;986.85;;;9.1;100
75089;BME280;63673;49.928;8.150;2023-11-19T05:22:06;986.81;;;9.12;100
75089;BME280;63673;49.928;8.150;2023-11-19T05:23:08;986.87;;;9.13;100
75089;BME280;63673;49.928;8.150;2023-11-19T05:24:10;986.86;;;9.14;100
75089;BME280;63673;49.928;8.150;2023-11-19T05:25:12;986.8;;;9.16;100
75089;BME280;63673;49.928;8.150;2023-11-19T05:26:17;986.86;;;9.16;100
75089;BME280;63673;49.928;8.150;2023-11-19T05:27:15;986.78;;;9.18;100
75089;BME280;63673;49.928;8.150;2023-11-19T05:28:17;986.83;;;9.17;100
75089;BME280;63673;49.928;8.150;2023-11-19T05:29:18;986.8;;;9.19;100
75089;BME280;63673;49.928;8.150;2023-11-19T05:30:20;986.78;;;9.21;100
75089;BME280;63673;49.928;8.150;2023-11-19T05:31:22;986.81;;;9.22;100
75089;BME280;63673;49.928;8.150;2023-11-19T05:32:24;986.83;;;9.23;100
75089;BME280;63673;49.928;8.150;2023-11-19T05:33:25;986.8;;;9.25;100
75089;BME280;63673;49.928;8.150;2023-11-19T05:34:27;986.84;;;9.26;100
75089;BME280;63673;49.928;8.150;2023-11-19T05:35:29;986.74;;;9.28;100
75089;BME280;63673;49.928;8.150;2023-11-19T05:36:31;986.72;;;9.29;100
75089;BME280;63673;49.928;8.150;2023-11-19T05:37:32;986.69;;;9.3;100
75089;BME280;63673;49.928;8.150;2023-11-19T05:38:34;986.68;;;9.31;100
75089;BME280;63673;49.928;8.150;2023-11-19T05:39:36;986.65;;;9.32;100
75089;BME280;63673;49.928;8.150;2023-11-19T05:40:38;986.69;;;9.34;100
75089;BME280;63673;49.928;8.150;2023-11-19T05:41:39;986.69;;;9.35;100
75089;BME280;63673;49.928;8.150;2023-11-19T05:42:41;986.7;;;9.36;100
75089;BME280;63673;49.928;8.150;2023-11-19T05:43:43;986.7;;;9.37;100
75089;BME280;63673;49.928;8.150;2023-11-19T05:44:44;986.67;;;9.38;100
75089;BME280;63673;49.928;8.150;2023-11-19T05:45:46;986.69;;;9.38;100
75089;BME280;63673;49.928;8.150;2023-11-19T05:46:48;986.7;;;9.39;100
75089;BME280;63673;49.928;8.150;2023-11-19T05:47:50;986.67;;;9.4;100
75089;BME280;63673;49.928;8.150;2023-11-19T05:48:51;986.67;;;9.41;100
75089;BME280;63673;49.928;8.150;2023-11-19T05:49:53;986.69;;;9.42;100
75089;BME280;63673;49.928;8.150;2023-11-19T05:50:55;986.73;;;9.43;100
75089;BME280;63673;49.928;8.150;2023-11-19T05:51:57;986.77;;;9.44;100
75089;BME280;63673;49.928;8.150;2023-11-19T05:52:58;986.76;;;9.45;100
75089;BME280;63673;49.928;8.150;2023-11-19T05:54:00;986.79;;;9.46;100
75089;BME280;63673;49.928;8.150;2023-11-19T05:55:02;986.78;;;9.47;100
75089;BME280;63673;49.928;8.150;2023-11-19T05:56:04;986.82;;;9.48;100
75089;BME280;63673;49.928;8.150;2023-11-19T05:57:05;986.85;;;9.49;100